createdAt,value
2022-12-10T00:02:46.801Z,93497.19
2022-12-10T00:05:50.547Z,93497.00
2022-12-10T00:08:54.332Z,93502.19
2022-12-10T00:11:58.218Z,93506.09
2022-12-10T00:15:01.481Z,93509.00
2022-12-10T00:18:05.201Z,93499.22
2022-12-10T00:21:14.926Z,93498.66
2022-12-10T00:24:17.906Z,93507.28
2022-12-10T00:27:21.440Z,93507.97
2022-12-10T00:30:24.455Z,93510.94
2022-12-10T00:33:29.119Z,93514.63
2022-12-10T00:36:39.151Z,93506.84
2022-12-10T00:39:43.163Z,93516.06
2022-12-10T00:42:48.816Z,93523.31
2022-12-10T00:45:52.146Z,93514.22
2022-12-10T00:48:55.281Z,93531.25
2022-12-10T00:51:58.602Z,93530.47
2022-12-10T00:55:01.544Z,93529.69
2022-12-10T00:58:05.718Z,93536.81
2022-12-10T01:01:21.825Z,93530.69
2022-12-10T01:04:26.429Z,93542.94
2022-12-10T01:07:29.329Z,93555.88
2022-12-10T01:10:33.791Z,93558.84
2022-12-10T01:13:37.862Z,93552.59
2022-12-10T01:16:40.943Z,93562.16
2022-12-10T01:19:45.996Z,93554.78
2022-12-10T01:22:49.698Z,93552.78
2022-12-10T01:25:52.723Z,93564.94
2022-12-10T01:28:56.580Z,93561.38
2022-12-10T01:32:00.223Z,93561.97
2022-12-10T01:35:03.661Z,93570.31
2022-12-10T01:38:07.326Z,93579.19
2022-12-10T01:41:18.975Z,93581.97
2022-12-10T01:44:22.423Z,93577.47
2022-12-10T01:47:26.292Z,93575.72
2022-12-10T01:50:29.499Z,93575.56
2022-12-10T01:53:34.581Z,93572.44
2022-12-10T01:56:51.778Z,93564.78
2022-12-10T02:00:02.587Z,93571.19
2022-12-10T02:03:24.103Z,93569.19
2022-12-10T02:06:39.456Z,93566.13
2022-12-10T02:09:52.833Z,93569.03
2022-12-10T02:13:11.358Z,93570.84
2022-12-10T02:16:21.272Z,93576.13
2022-12-10T02:19:31.176Z,93566.66
2022-12-10T02:23:03.636Z,93576.00
2022-12-10T02:26:17.776Z,93571.50
2022-12-10T02:29:26.394Z,93563.38
2022-12-10T02:32:42.267Z,93559.81
2022-12-10T02:35:50.676Z,93564.09
2022-12-10T02:38:55.957Z,93555.31
2022-12-10T02:42:02.858Z,93550.75
2022-12-10T02:45:09.854Z,93552.13
2022-12-10T02:48:14.348Z,93545.84
2022-12-10T02:51:20.419Z,93548.75
2022-12-10T02:54:46.905Z,93539.25
2022-12-10T02:58:49.346Z,93536.66
2022-12-10T03:01:56.848Z,93533.53
2022-12-10T03:05:32.735Z,93519.44
2022-12-10T03:08:50.468Z,93519.69
2022-12-10T03:12:01.427Z,93520.38
2022-12-10T03:15:09.663Z,93514.16
2022-12-10T03:18:17.664Z,93511.19
2022-12-10T03:21:21.195Z,93505.50
2022-12-10T03:24:29.346Z,93497.88
2022-12-10T03:27:34.153Z,93493.03
2022-12-10T03:30:40.990Z,93494.75
2022-12-10T03:33:45.444Z,93490.78
2022-12-10T03:36:49.468Z,93483.97
2022-12-10T03:39:52.687Z,93486.06
2022-12-10T03:42:55.737Z,93483.97
2022-12-10T03:45:58.732Z,93484.53
2022-12-10T03:49:03.986Z,93497.16
2022-12-10T03:52:06.973Z,93508.91
2022-12-10T03:55:11.079Z,93480.47
2022-12-10T03:58:20.077Z,93471.75
2022-12-10T04:01:24.368Z,93471.03
2022-12-10T04:04:28.152Z,93487.63
2022-12-10T04:07:31.951Z,93483.69
2022-12-10T04:10:39.485Z,93474.41
2022-12-10T04:14:01.677Z,93464.59
2022-12-10T04:17:04.744Z,93473.16
2022-12-10T04:20:28.181Z,93461.22
2022-12-10T04:23:49.315Z,93461.03
2022-12-10T04:26:57.096Z,93455.28
2022-12-10T04:30:01.576Z,93461.97
2022-12-10T04:33:05.726Z,93457.09
2022-12-10T04:36:09.845Z,93458.84
2022-12-10T04:39:13.604Z,93448.28
2022-12-10T04:42:17.060Z,93448.41
2022-12-10T04:45:20.075Z,93446.72
2022-12-10T04:48:25.124Z,93433.75
2022-12-10T04:51:28.483Z,93429.41
2022-12-10T04:54:38.553Z,93425.41
2022-12-10T04:57:42.173Z,93423.97
2022-12-10T05:00:45.183Z,93433.41
2022-12-10T05:03:48.682Z,93430.78
2022-12-10T05:06:51.700Z,93416.72
2022-12-10T05:09:55.825Z,93425.09
2022-12-10T05:12:59.424Z,93435.78
2022-12-10T05:16:04.789Z,93424.41
2022-12-10T05:19:12.059Z,93415.63
2022-12-10T05:22:34.524Z,93399.38
2022-12-10T05:25:54.161Z,93409.63
2022-12-10T05:28:59.414Z,93417.91
2022-12-10T05:32:05.269Z,93417.91
2022-12-10T05:35:09.253Z,93408.38
2022-12-10T05:38:12.988Z,93403.47
2022-12-10T05:41:22.028Z,93398.25
2022-12-10T05:44:25.118Z,93391.63
2022-12-10T05:47:30.269Z,93392.66
2022-12-10T05:50:34.595Z,93390.41
2022-12-10T05:53:38.635Z,93389.56
2022-12-10T05:56:42.273Z,93384.59
2022-12-10T05:59:45.828Z,93380.84
2022-12-10T06:02:49.144Z,93388.69
2022-12-10T06:05:53.320Z,93393.47
2022-12-10T06:08:58.142Z,93407.78
2022-12-10T06:12:01.485Z,93397.50
2022-12-10T06:15:06.911Z,93408.06
2022-12-10T06:18:11.355Z,93414.16
2022-12-10T06:21:16.856Z,93415.91
2022-12-10T06:24:19.801Z,93409.25
2022-12-10T06:27:24.127Z,93422.06
2022-12-10T06:30:27.795Z,93427.53
2022-12-10T06:33:31.351Z,93423.38
2022-12-10T06:36:35.003Z,93420.84
2022-12-10T06:39:38.910Z,93420.25
2022-12-10T06:42:42.915Z,93429.63
2022-12-10T06:45:46.775Z,93417.22
2022-12-10T06:48:50.912Z,93403.63
2022-12-10T06:51:54.364Z,93401.78
2022-12-10T06:54:58.271Z,93404.13
2022-12-10T06:58:02.116Z,93389.38
2022-12-10T07:01:11.646Z,93396.72
2022-12-10T07:04:15.671Z,93390.19
2022-12-10T07:07:19.423Z,93399.00
2022-12-10T07:10:24.597Z,93400.72
2022-12-10T07:13:30.706Z,93403.59
2022-12-10T07:16:34.751Z,93395.63
2022-12-10T07:19:37.998Z,93422.00
2022-12-10T07:22:41.750Z,93432.03
2022-12-10T07:25:45.603Z,93415.88
2022-12-10T07:28:52.982Z,93416.31
2022-12-10T07:31:57.658Z,93417.72
2022-12-10T07:35:00.967Z,93422.06
2022-12-10T07:38:04.705Z,93412.59
2022-12-10T07:41:10.826Z,93415.84
2022-12-10T07:44:14.806Z,93417.09
2022-12-10T07:47:18.345Z,93417.50
2022-12-10T07:50:21.431Z,93430.13
2022-12-10T07:53:24.704Z,93410.81
2022-12-10T07:56:27.674Z,93406.03
2022-12-10T07:59:32.413Z,93400.00
2022-12-10T08:02:37.586Z,93409.88
2022-12-10T08:05:41.293Z,93409.22
2022-12-10T08:08:46.359Z,93414.44
2022-12-10T08:11:50.150Z,93414.84
2022-12-10T08:14:53.730Z,93411.22
2022-12-10T08:17:57.858Z,93420.28
2022-12-10T08:21:13.750Z,93414.06
2022-12-10T08:24:16.797Z,93404.78
2022-12-10T08:27:20.715Z,93413.66
2022-12-10T08:30:24.434Z,93409.53
2022-12-10T08:33:28.130Z,93410.22
2022-12-10T08:36:32.342Z,93418.41
2022-12-10T08:39:35.808Z,93420.34
2022-12-10T08:42:39.685Z,93423.44
2022-12-10T08:45:43.757Z,93427.31
2022-12-10T08:48:46.901Z,93435.13
2022-12-10T08:51:50.994Z,93437.72
2022-12-10T08:54:54.555Z,93443.63
2022-12-10T08:58:00.707Z,93435.81
2022-12-10T09:01:08.970Z,93428.56
2022-12-10T09:04:14.196Z,93418.16
2022-12-10T09:07:17.213Z,93401.47
2022-12-10T09:10:20.904Z,93413.28
2022-12-10T09:13:24.577Z,93413.09
2022-12-10T09:16:32.488Z,93411.69
2022-12-10T09:19:36.449Z,93419.84
2022-12-10T09:22:39.473Z,93414.28
2022-12-10T09:25:42.793Z,93412.22
2022-12-10T09:28:47.955Z,93410.13
2022-12-10T09:31:53.482Z,93417.91
2022-12-10T09:34:57.345Z,93421.06
2022-12-10T09:38:00.544Z,93403.38
2022-12-10T09:41:12.497Z,93410.47
2022-12-10T09:44:24.471Z,93411.50
2022-12-10T09:47:41.528Z,93419.28
2022-12-10T09:50:51.338Z,93427.56
2022-12-10T09:53:59.942Z,93426.88
2022-12-10T09:57:06.972Z,93440.59
2022-12-10T10:00:34.197Z,93440.25
2022-12-10T10:03:40.624Z,93450.78
2022-12-10T10:06:45.513Z,93453.38
2022-12-10T10:09:48.643Z,93467.06
2022-12-10T10:12:56.662Z,93472.44
2022-12-10T10:16:22.016Z,93477.97
2022-12-10T10:19:34.702Z,93475.03
2022-12-10T10:22:42.202Z,93485.56
2022-12-10T10:25:47.138Z,93494.91
2022-12-10T10:28:54.030Z,93497.13
2022-12-10T10:32:17.243Z,93489.00
2022-12-10T10:35:28.523Z,93486.25
2022-12-10T10:38:33.146Z,93487.28
2022-12-10T10:41:41.396Z,93492.13
2022-12-10T10:44:45.808Z,93494.91
2022-12-10T10:47:49.594Z,93499.03
2022-12-10T10:51:22.061Z,93503.22
2022-12-10T10:54:43.717Z,93515.31
2022-12-10T10:57:47.488Z,93514.94
2022-12-10T11:01:01.551Z,93523.81
2022-12-10T11:04:05.955Z,93532.59
2022-12-10T11:07:23.371Z,93515.44
2022-12-10T11:10:27.610Z,93521.31
2022-12-10T11:13:37.215Z,93525.25
2022-12-10T11:16:40.640Z,93523.00
2022-12-10T11:20:15.330Z,93526.25
2022-12-10T11:23:21.778Z,93523.16
2022-12-10T11:26:44.637Z,93531.75
2022-12-10T11:30:08.901Z,93533.75
2022-12-10T11:33:42.922Z,93538.25
2022-12-10T11:37:06.771Z,93526.81
2022-12-10T11:40:34.202Z,93533.91
2022-12-10T11:44:01.816Z,93529.22
2022-12-10T11:47:44.897Z,93528.47
2022-12-10T11:50:57.622Z,93515.31
2022-12-10T11:54:22.007Z,93522.84
2022-12-10T11:57:25.708Z,93522.22
2022-12-10T12:00:38.386Z,93527.13
2022-12-10T12:03:58.966Z,93526.44
2022-12-10T12:07:39.026Z,93528.34
2022-12-10T12:10:57.292Z,93533.47
2022-12-10T12:14:09.631Z,93537.13
2022-12-10T12:17:45.287Z,93539.22
2022-12-10T12:20:55.540Z,93548.09
2022-12-10T12:24:13.757Z,93528.84
2022-12-10T12:27:27.100Z,93535.03
2022-12-10T12:30:35.574Z,93525.31
2022-12-10T12:34:04.679Z,93529.16
2022-12-10T12:37:13.860Z,93522.16
2022-12-10T12:40:22.745Z,93533.91
2022-12-10T12:43:37.793Z,93532.44
2022-12-10T12:46:46.827Z,93531.66
2022-12-10T12:49:51.237Z,93536.31
2022-12-10T12:53:03.179Z,93526.38
2022-12-10T12:56:24.386Z,93529.31
2022-12-10T12:59:45.653Z,93542.81
2022-12-10T13:03:13.893Z,93544.66
2022-12-10T13:06:32.687Z,93538.84
2022-12-10T13:09:44.299Z,93543.94
2022-12-10T13:13:06.559Z,93534.94
2022-12-10T13:16:46.818Z,93532.03
2022-12-10T13:19:53.555Z,93533.22
2022-12-10T13:23:02.831Z,93534.78
2022-12-10T13:26:06.003Z,93545.88
2022-12-10T13:29:28.499Z,93532.34
2022-12-10T13:32:32.115Z,93534.34
2022-12-10T13:35:59.168Z,93523.69
2022-12-10T13:39:05.260Z,93529.50
2022-12-10T13:42:26.961Z,93541.94
2022-12-10T13:45:34.488Z,93542.28
2022-12-10T13:48:40.165Z,93548.97
2022-12-10T13:51:57.201Z,93546.81
2022-12-10T13:55:21.673Z,93554.66
2022-12-10T13:58:44.199Z,93551.28
2022-12-10T14:02:35.023Z,93550.22
2022-12-10T14:06:07.355Z,93552.47
2022-12-10T14:09:21.901Z,93550.25
2022-12-10T14:12:41.531Z,93558.63
2022-12-10T14:15:56.171Z,93555.84
2022-12-10T14:19:07.193Z,93560.94
2022-12-10T14:22:21.713Z,93559.22
2022-12-10T14:25:25.889Z,93554.28
2022-12-10T14:28:34.796Z,93550.44
2022-12-10T14:31:49.955Z,93546.69
2022-12-10T14:34:59.641Z,93542.25
2022-12-10T14:38:03.469Z,93542.88
2022-12-10T14:41:08.984Z,93544.56
2022-12-10T14:44:16.845Z,93539.53
2022-12-10T14:47:21.610Z,93549.09
2022-12-10T14:50:29.749Z,93559.59
2022-12-10T14:53:33.649Z,93557.88
2022-12-10T14:56:42.354Z,93554.81
2022-12-10T14:59:58.514Z,93565.66
2022-12-10T15:03:09.135Z,93551.91
2022-12-10T15:06:12.680Z,93548.59
2022-12-10T15:09:22.153Z,93544.16
2022-12-10T15:12:34.265Z,93542.56
2022-12-10T15:15:40.923Z,93544.31
2022-12-10T15:18:46.739Z,93531.22
2022-12-10T15:21:52.003Z,93529.59
2022-12-10T15:24:55.140Z,93536.66
2022-12-10T15:28:03.045Z,93528.41
2022-12-10T15:31:29.991Z,93537.00
2022-12-10T15:34:41.281Z,93548.03
2022-12-10T15:37:46.907Z,93535.69
2022-12-10T15:40:49.950Z,93538.06
2022-12-10T15:44:07.059Z,93532.69
2022-12-10T15:47:19.042Z,93530.72
2022-12-10T15:50:22.383Z,93528.59
2022-12-10T15:53:36.031Z,93536.47
2022-12-10T15:56:39.842Z,93531.00
2022-12-10T15:59:48.481Z,93520.25
2022-12-10T16:02:57.122Z,93518.94
2022-12-10T16:06:00.806Z,93512.66
2022-12-10T16:09:04.371Z,93494.44
2022-12-10T16:12:11.772Z,93498.34
2022-12-10T16:15:24.810Z,93486.47
2022-12-10T16:18:33.420Z,93477.16
2022-12-10T16:21:37.199Z,93477.91
2022-12-10T16:24:45.036Z,93467.34
2022-12-10T16:27:48.937Z,93476.78
2022-12-10T16:30:57.264Z,93466.19
2022-12-10T16:34:01.063Z,93470.09
2022-12-10T16:37:04.735Z,93469.81
2022-12-10T16:40:08.447Z,93469.16
2022-12-10T16:43:27.022Z,93463.56
2022-12-10T16:46:30.046Z,93457.97
2022-12-10T16:49:33.367Z,93453.22
2022-12-10T16:52:36.555Z,93452.03
2022-12-10T16:55:39.642Z,93452.03
2022-12-10T16:58:43.431Z,93457.69
2022-12-10T17:01:47.239Z,93459.97
2022-12-10T17:04:50.579Z,93450.53
2022-12-10T17:07:53.701Z,93447.75
2022-12-10T17:11:16.707Z,93457.78
2022-12-10T17:14:32.200Z,93464.06
2022-12-10T17:17:35.801Z,93454.22
2022-12-10T17:20:39.162Z,93444.41
2022-12-10T17:23:42.223Z,93449.84
2022-12-10T17:26:48.358Z,93443.56
2022-12-10T17:29:55.243Z,93442.56
2022-12-10T17:32:58.601Z,93442.56
2022-12-10T17:36:02.463Z,93439.47
2022-12-10T17:39:05.651Z,93427.13
2022-12-10T17:42:10.911Z,93432.50
2022-12-10T17:45:21.949Z,93424.03
2022-12-10T17:48:26.345Z,93430.09
2022-12-10T17:51:30.470Z,93429.53
2022-12-10T17:54:34.252Z,93416.41
2022-12-10T17:57:37.603Z,93415.94
2022-12-10T18:00:41.649Z,93415.78
2022-12-10T18:03:45.471Z,93418.31
2022-12-10T18:06:49.135Z,93406.09
2022-12-10T18:09:52.519Z,93413.69
2022-12-10T18:12:55.607Z,93409.03
2022-12-10T18:15:59.664Z,93407.22
2022-12-10T18:19:08.373Z,93409.50
2022-12-10T18:22:12.917Z,93402.06
2022-12-10T18:25:21.954Z,93401.66
2022-12-10T18:28:27.075Z,93400.75
2022-12-10T18:31:34.078Z,93405.38
2022-12-10T18:34:37.379Z,93410.66
2022-12-10T18:37:41.919Z,93399.28
2022-12-10T18:40:46.467Z,93389.44
2022-12-10T18:43:50.781Z,93394.88
2022-12-10T18:46:56.899Z,93391.97
2022-12-10T18:50:00.403Z,93388.91
2022-12-10T18:53:04.522Z,93394.75
2022-12-10T18:56:08.502Z,93397.63
2022-12-10T18:59:17.344Z,93392.00
2022-12-10T19:02:21.059Z,93380.50
2022-12-10T19:05:25.460Z,93383.94
2022-12-10T19:08:30.588Z,93385.66
2022-12-10T19:11:34.445Z,93379.94
2022-12-10T19:14:38.202Z,93382.72
2022-12-10T19:17:42.455Z,93374.34
2022-12-10T19:20:45.987Z,93365.00
2022-12-10T19:23:50.146Z,93359.44
2022-12-10T19:26:54.292Z,93366.41
2022-12-10T19:29:58.275Z,93348.31
2022-12-10T19:33:02.183Z,93344.78
2022-12-10T19:36:06.048Z,93340.16
2022-12-10T19:39:18.822Z,93333.13
2022-12-10T19:42:22.998Z,93337.50
2022-12-10T19:45:27.458Z,93325.09
2022-12-10T19:48:34.865Z,93331.31
2022-12-10T19:51:39.013Z,93326.16
2022-12-10T19:54:43.012Z,93321.22
2022-12-10T19:57:47.182Z,93314.88
2022-12-10T20:00:51.182Z,93307.00
2022-12-10T20:03:56.024Z,93302.34
2022-12-10T20:06:59.586Z,93299.56
2022-12-10T20:10:04.431Z,93292.00
2022-12-10T20:13:07.894Z,93292.50
2022-12-10T20:16:23.292Z,93274.16
2022-12-10T20:19:27.524Z,93278.84
2022-12-10T20:22:31.319Z,93273.88
2022-12-10T20:25:35.519Z,93270.59
2022-12-10T20:28:39.556Z,93273.75
2022-12-10T20:31:43.859Z,93271.56
2022-12-10T20:34:47.650Z,93267.84
2022-12-10T20:37:51.654Z,93274.00
2022-12-10T20:40:54.670Z,93265.91
2022-12-10T20:43:57.946Z,93262.53
2022-12-10T20:47:01.263Z,93261.94
2022-12-10T20:50:09.802Z,93255.56
2022-12-10T20:53:12.696Z,93254.69
2022-12-10T20:56:20.138Z,93258.22
2022-12-10T20:59:24.078Z,93258.72
2022-12-10T21:02:28.366Z,93257.13
2022-12-10T21:05:32.241Z,93260.75
2022-12-10T21:08:36.313Z,93257.13
2022-12-10T21:11:40.509Z,93248.81
2022-12-10T21:14:54.094Z,93249.69
2022-12-10T21:17:59.722Z,93238.66
2022-12-10T21:21:04.002Z,93242.34
2022-12-10T21:24:08.314Z,93241.97
2022-12-10T21:27:13.947Z,93243.88
2022-12-10T21:30:17.044Z,93239.41
2022-12-10T21:33:24.043Z,93236.81
2022-12-10T21:36:27.948Z,93240.22
2022-12-10T21:39:31.282Z,93227.88
2022-12-10T21:42:52.824Z,93232.97
2022-12-10T21:45:57.841Z,93212.78
2022-12-10T21:49:01.853Z,93203.28
2022-12-10T21:52:06.146Z,93209.53
2022-12-10T21:55:10.673Z,93203.94
2022-12-10T21:58:14.858Z,93201.09
2022-12-10T22:01:19.502Z,93199.16
2022-12-10T22:04:24.903Z,93193.59
2022-12-10T22:07:30.398Z,93187.25
2022-12-10T22:10:34.258Z,93190.91
2022-12-10T22:13:37.426Z,93190.41
2022-12-10T22:16:47.869Z,93190.19
2022-12-10T22:19:52.082Z,93181.16
2022-12-10T22:22:55.787Z,93194.19
2022-12-10T22:25:59.667Z,93189.13
2022-12-10T22:29:03.505Z,93179.63
2022-12-10T22:32:06.590Z,93176.78
2022-12-10T22:35:13.072Z,93190.84
2022-12-10T22:38:17.874Z,93176.16
2022-12-10T22:41:21.965Z,93177.88
2022-12-10T22:44:25.664Z,93163.28
2022-12-10T22:47:30.583Z,93159.94
2022-12-10T22:50:34.635Z,93163.78
2022-12-10T22:53:38.224Z,93166.59
2022-12-10T22:56:41.950Z,93167.88
2022-12-10T22:59:45.694Z,93166.16
2022-12-10T23:02:51.173Z,93154.28
2022-12-10T23:05:55.122Z,93152.66
2022-12-10T23:08:58.808Z,93146.81
2022-12-10T23:12:20.277Z,93144.53
2022-12-10T23:15:24.009Z,93142.03
2022-12-10T23:18:28.345Z,93130.53
2022-12-10T23:21:32.008Z,93135.53
2022-12-10T23:24:35.865Z,93125.88
2022-12-10T23:27:39.694Z,93122.22
2022-12-10T23:30:44.608Z,93118.06
2022-12-10T23:33:48.434Z,93119.50
2022-12-10T23:36:52.528Z,93120.38
2022-12-10T23:39:56.246Z,93125.69
2022-12-10T23:43:00.886Z,93111.44
2022-12-10T23:46:05.514Z,93110.59
2022-12-10T23:49:09.651Z,93114.13
2022-12-10T23:52:13.402Z,93123.97
2022-12-10T23:55:16.743Z,93112.94
2022-12-10T23:58:21.682Z,93121.84
